< Cyclone 198213 1982 Season Cyclone 198215 >
Cyclone 198214 (BERNIE)
General InformationDetailed Track InformationTrack Information on Google MapsList of All Images || ResourceGoogle EarthGE AnimationAtom FeedGeoJSON
Detalied Best Track Wind (Time Zone = UTC)
Year Month Day Hour Lat. Long. Wind (kt) Gust (kt) Direc. of Major Storm Axis Radius of Major Storm Axis (nm) Radius of Minor Storm Axis (nm) Direc. of Major Gale Axis Radius of Major Gale Axis (nm) Radius of Minor Gale Axis (nm) Image
1982 4 1 02 -5.7 159.5 30 45 symmetric - - symmetric - - Image
1982 4 1 06 -6.1 159.4 30 45 symmetric - - symmetric - - Image
1982 4 1 12 -6.7 159.3 30 45 symmetric - - symmetric - - Image
1982 4 1 18 -7.6 159.2 35 50 symmetric - - symmetric - - Image
1982 4 2 00 -8.4 158.9 40 55 symmetric - - symmetric - - Image
1982 4 2 06 -9.0 158.6 45 65 symmetric - - symmetric - - Image
1982 4 2 12 -9.5 158.4 50 70 symmetric - - symmetric - - Image
1982 4 2 18 -9.9 158.2 50 70 symmetric - - symmetric - - Image
1982 4 3 00 -10.2 158.1 50 70 symmetric - - symmetric - - Image
1982 4 3 06 -10.5 158.0 50 70 symmetric - - symmetric - - Image
1982 4 3 12 -10.9 157.8 55 75 symmetric - - symmetric - - Image
1982 4 3 18 -11.4 157.5 55 75 symmetric - - symmetric - - Image
1982 4 4 00 -12.1 157.3 60 85 symmetric - - symmetric - - Image
1982 4 4 06 -13.2 157.0 60 85 symmetric - - symmetric - - Image
1982 4 4 12 -14.3 156.6 65 90 symmetric - - symmetric - - Image
1982 4 4 18 -15.4 156.5 70 100 symmetric - - symmetric - - Image
1982 4 5 00 -16.6 156.4 80 110 symmetric - - symmetric - - Image
1982 4 5 06 -17.6 156.6 100 140 symmetric - - symmetric - - Image
1982 4 5 12 -18.5 157.2 100 140 symmetric - - symmetric - - Image
1982 4 5 18 -19.4 157.8 100 140 symmetric - - symmetric - - Image
1982 4 6 00 -20.3 158.5 100 140 symmetric - - symmetric - - Image
1982 4 6 06 -21.1 159.1 90 125 symmetric - - symmetric - - Image
1982 4 6 12 -21.9 159.9 90 125 symmetric - - symmetric - - Image
1982 4 6 18 -22.7 160.8 90 125 symmetric - - symmetric - - Image
1982 4 7 00 -23.3 161.9 80 110 symmetric - - symmetric - - Image
< Cyclone 198213 1982 Season Cyclone 198215 >

Help